Time;durP1;ratioP1;P1;durP2;ratioP2;P2;SDS_P1;SDS_P2;PMS_P1;PMS_P2;Temp;Humidity;BMP_temperature;BMP_pressure;BME280_temperature;BME280_humidity;BME280_pressure;Samples;Min_cycle;Max_cycle;Signal;HPM_P1;HPM_P2
2022/08/22 00:01:58;;;;;;;7.73;7.23;;;;;;;22.86;100.00;98547.69;5160442;27;20189;-70
2022/08/22 00:04:35;;;;;;;8.40;7.67;;;;;;;22.89;100.00;98547.41;5157056;27;20219;-70
2022/08/22 00:07:08;;;;;;;8.80;8.10;;;;;;;22.89;100.00;98550.00;5173167;27;20219;-70
2022/08/22 00:09:47;;;;;;;7.83;7.33;;;;;;;22.82;100.00;98538.47;5152706;27;20190;-69
2022/08/22 00:12:21;;;;;;;8.40;7.60;;;;;;;22.84;100.00;98541.75;5152415;27;20687;-70
2022/08/22 00:14:53;;;;;;;10.40;7.20;;;;;;;22.80;100.00;98537.81;5154713;27;20208;-70
2022/08/22 00:17:47;;;;;;;9.17;8.50;;;;;;;22.80;100.00;98542.22;5160498;27;20220;-70
2022/08/22 00:20:20;;;;;;;9.33;8.77;;;;;;;22.66;100.00;98551.31;5166938;27;20200;-69
2022/08/22 00:22:55;;;;;;;7.97;7.40;;;;;;;22.48;100.00;98559.06;5155943;27;20765;-69
2022/08/22 00:25:41;;;;;;;8.20;7.13;;;;;;;22.34;100.00;98556.06;5150848;27;20203;-69
2022/08/22 00:28:14;;;;;;;8.07;7.47;;;;;;;22.24;100.00;98552.63;5171059;27;20639;-69
2022/08/22 00:30:49;;;;;;;8.20;7.43;;;;;;;22.25;100.00;98543.84;5163279;27;20541;-70
2022/08/22 00:33:24;;;;;;;8.20;7.57;;;;;;;22.25;100.00;98546.47;5163431;27;20193;-69
2022/08/22 00:36:02;;;;;;;7.83;7.33;;;;;;;22.22;100.00;98551.97;5163142;27;20211;-69
2022/08/22 00:38:36;;;;;;;8.37;7.73;;;;;;;22.22;100.00;98546.75;5173418;27;20200;-69
2022/08/22 00:41:10;;;;;;;7.97;7.03;;;;;;;22.24;100.00;98550.03;5160296;27;20203;-70
2022/08/22 00:44:03;;;;;;;7.53;7.10;;;;;;;22.28;100.00;98544.41;5164739;27;20662;-69
2022/08/22 00:46:52;;;;;;;7.57;6.83;;;;;;;22.25;100.00;98526.41;5171894;27;20671;-69
2022/08/22 00:49:54;;;;;;;7.87;7.27;;;;;;;22.34;100.00;98545.63;5157407;27;20193;-70
2022/08/22 00:52:54;;;;;;;7.67;6.97;;;;;;;22.35;100.00;98531.59;5165441;27;20192;-70
2022/08/22 00:55:36;;;;;;;7.70;7.13;;;;;;;22.27;100.00;98519.25;5158589;27;20194;-70
2022/08/22 00:58:25;;;;;;;7.50;6.77;;;;;;;22.42;100.00;98537.91;5154260;27;20220;-70
2022/08/22 01:00:54;;;;;;;6.97;6.67;;;;;;;22.42;100.00;98537.91;5155510;27;20194;-70
2022/08/22 01:04:10;;;;;;;6.67;6.10;;;;;;;22.45;100.00;98537.63;5162404;27;20745;-70
2022/08/22 01:06:49;;;;;;;6.80;6.20;;;;;;;22.45;100.00;98543.69;5110478;28;20556;-69
2022/08/22 01:09:30;;;;;;;7.50;6.20;;;;;;;22.42;100.00;98537.91;5117326;27;20190;-70
2022/08/22 01:12:33;;;;;;;5.93;5.63;;;;;;;22.46;100.00;98537.47;5119383;27;20199;-69
2022/08/22 01:15:07;;;;;;;8.10;7.40;;;;;;;22.44;100.00;98530.75;5111751;27;20203;-69
2022/08/22 01:17:54;;;;;;;7.63;6.97;;;;;;;22.41;100.00;98538.88;5114944;27;20216;-70
2022/08/22 01:21:06;;;;;;;7.53;6.80;;;;;;;22.42;100.00;98553.59;5111415;28;20688;-70
2022/08/22 01:24:23;;;;;;;7.13;6.73;;;;;;;22.42;100.00;98559.59;5118483;27;20198;-69
2022/08/22 01:27:22;;;;;;;7.60;6.87;;;;;;;22.43;100.00;98550.00;5108655;28;20414;-70
2022/08/22 01:30:31;;;;;;;7.27;6.77;;;;;;;22.39;100.00;98548.66;5109813;28;20203;-70
2022/08/22 01:33:33;;;;;;;6.83;6.17;;;;;;;22.39;100.00;98553.88;5119696;27;20255;-69
2022/08/22 01:36:38;;;;;;;6.77;6.23;;;;;;;22.39;100.00;98553.88;5111411;27;20205;-69
2022/08/22 01:39:28;;;;;;;7.33;6.83;;;;;;;22.32;100.00;98527.50;5121212;27;20202;-69
2022/08/22 01:42:38;;;;;;;7.13;6.67;;;;;;;22.40;100.00;98545.88;5120226;27;20204;-69
2022/08/22 01:45:34;;;;;;;7.90;6.67;;;;;;;22.38;100.00;98544.38;5114138;27;20559;-70
2022/08/22 01:48:10;;;;;;;6.90;6.50;;;;;;;22.40;100.00;98555.50;5117394;27;20210;-70
2022/08/22 01:50:43;;;;;;;6.67;6.27;;;;;;;22.42;100.00;98553.59;5111276;28;20204;-70
2022/08/22 01:53:18;;;;;;;8.20;7.63;;;;;;;22.42;100.00;98545.75;5123001;27;20561;-69
2022/08/22 01:55:52;;;;;;;7.70;7.20;;;;;;;22.41;100.00;98536.25;5123769;27;20296;-70
2022/08/22 01:58:22;;;;;;;7.40;6.80;;;;;;;22.45;100.00;98548.06;5117588;27;20194;-69
2022/08/22 02:01:02;;;;;;;7.40;6.97;;;;;;;22.43;100.00;98544.75;5119717;27;20198;-70
2022/08/22 02:03:34;;;;;;;7.40;6.80;;;;;;;22.36;100.00;98554.13;5109949;28;20194;-70
2022/08/22 02:06:12;;;;;;;7.77;6.80;;;;;;;22.32;100.00;98552.78;5161729;27;20311;-70
2022/08/22 02:08:46;;;;;;;7.60;7.10;;;;;;;22.32;100.00;98558.00;5160870;27;20216;-69
2022/08/22 02:11:34;;;;;;;7.47;6.97;;;;;;;22.33;100.00;98557.00;5161483;27;20791;-70
2022/08/22 02:14:13;;;;;;;8.67;6.20;;;;;;;22.22;100.00;98542.34;5150996;27;20320;-70
2022/08/22 02:16:43;;;;;;;6.63;6.03;;;;;;;22.33;100.00;98555.22;5160753;27;20201;-70
2022/08/22 02:19:25;;;;;;;6.73;6.33;;;;;;;22.34;100.00;98567.34;5153459;27;20204;-70
2022/08/22 02:21:58;;;;;;;7.00;6.40;;;;;;;22.33;100.00;98554.41;5160275;27;20209;-70
2022/08/22 02:24:39;;;;;;;8.10;6.67;;;;;;;22.22;100.00;98541.53;5152308;27;20208;-70
2022/08/22 02:27:16;;;;;;;7.77;7.07;;;;;;;22.29;100.00;98553.06;5155028;27;20201;-70
2022/08/22 02:29:48;;;;;;;7.63;7.00;;;;;;;22.25;100.00;98562.97;5151354;27;20584;-70
2022/08/22 02:32:22;;;;;;;8.57;7.10;;;;;;;22.20;100.00;98551.25;5169851;27;20689;-70
2022/08/22 02:35:00;;;;;;;8.80;7.03;;;;;;;22.18;100.00;98550.59;5158030;27;20206;-69
2022/08/22 02:37:35;;;;;;;6.80;6.40;;;;;;;22.26;100.00;98563.78;5157214;27;20199;-70
2022/08/22 02:40:12;;;;;;;7.50;6.80;;;;;;;22.28;100.00;98567.91;5159778;27;20591;-70
2022/08/22 02:42:50;;;;;;;8.70;7.90;;;;;;;22.11;100.00;98550.31;5160772;27;20291;-69
2022/08/22 02:45:29;;;;;;;7.80;7.17;;;;;;;22.24;100.00;98569.13;5169532;27;20192;-70
2022/08/22 02:48:04;;;;;;;7.70;7.20;;;;;;;22.18;100.00;98558.41;5161137;27;20281;-70
2022/08/22 02:50:38;;;;;;;7.87;7.23;;;;;;;22.06;100.00;98562.16;5154793;27;20192;-70
2022/08/22 02:53:11;;;;;;;8.13;7.37;;;;;;;22.04;100.00;98543.19;5151389;27;20193;-70
2022/08/22 02:55:50;;;;;;;7.87;7.07;;;;;;;22.15;100.00;98556.91;5152059;27;20192;-70
2022/08/22 02:58:26;;;;;;;7.57;6.97;;;;;;;22.16;100.00;98562.97;5152307;27;20189;-70
2022/08/22 03:01:22;;;;;;;10.33;7.33;;;;;;;22.17;100.00;98564.59;5151255;27;20189;-70
2022/08/22 03:03:50;;;;;;;7.50;7.07;;;;;;;22.18;100.00;98574.09;5164401;27;20192;-70
2022/08/22 03:06:33;;;;;;;9.97;6.57;;;;;;;22.14;100.00;98565.72;5156429;27;20710;-70
2022/08/22 03:09:07;;;;;;;7.97;7.10;;;;;;;22.12;100.00;98567.63;5165706;27;20222;-70
2022/08/22 03:11:39;;;;;;;8.07;7.37;;;;;;;22.02;100.00;98560.78;5172998;27;20200;-69
2022/08/22 03:14:10;;;;;;;8.17;7.40;;;;;;;22.02;100.00;98560.78;5154414;27;20197;-69
2022/08/22 03:16:46;;;;;;;8.13;7.73;;;;;;;21.87;100.00;98540.25;5150588;27;20198;-70
2022/08/22 03:19:20;;;;;;;8.67;7.83;;;;;;;21.98;100.00;98552.38;5150317;27;20207;-70
2022/08/22 03:21:56;;;;;;;7.43;6.77;;;;;;;22.01;100.00;98554.72;5161846;27;20250;-70
2022/08/22 03:24:31;;;;;;;7.90;7.00;;;;;;;22.05;100.00;98556.09;5163327;27;20208;-70
2022/08/22 03:27:05;;;;;;;8.20;7.40;;;;;;;22.08;100.00;98550.59;5151628;27;20193;-69
2022/08/22 03:29:37;;;;;;;8.50;7.90;;;;;;;22.13;100.00;98558.03;5157333;27;20220;-70
2022/08/22 03:32:14;;;;;;;7.93;7.33;;;;;;;22.13;100.00;98561.47;5172427;27;20199;-70
2022/08/22 03:34:55;;;;;;;8.10;7.30;;;;;;;22.19;100.00;98557.47;5164545;27;20193;-70
2022/08/22 03:37:32;;;;;;;8.60;8.10;;;;;;;22.20;100.00;98552.09;5160244;27;20676;-70
2022/08/22 03:40:03;;;;;;;12.60;9.80;;;;;;;22.21;100.00;98550.31;5174269;27;20647;-70
2022/08/22 03:42:58;;;;;;;7.67;7.20;;;;;;;22.17;100.00;98559.38;5167205;27;20236;-69
2022/08/22 03:46:08;;;;;;;8.20;7.60;;;;;;;22.14;100.00;98559.66;5155310;27;20572;-70
2022/08/22 03:49:02;;;;;;;8.73;8.23;;;;;;;22.05;100.00;98555.28;5160600;27;20201;-70
2022/08/22 03:51:40;;;;;;;9.27;8.57;;;;;;;22.17;100.00;98575.03;5158848;27;20200;-70
2022/08/22 03:54:43;;;;;;;10.20;7.57;;;;;;;22.19;100.00;98578.34;5157501;27;20196;-70
2022/08/22 03:57:49;;;;;;;10.23;7.90;;;;;;;22.20;100.00;98580.81;5172362;27;20193;-70
2022/08/22 04:00:36;;;;;;;8.57;8.00;;;;;;;22.21;100.00;98595.53;5164556;27;20249;-70
2022/08/22 04:03:40;;;;;;;8.77;8.03;;;;;;;22.24;100.00;98597.03;5156855;27;20197;-70
2022/08/22 04:06:37;;;;;;;8.83;8.13;;;;;;;22.25;100.00;98594.28;5164090;27;20227;-70
2022/08/22 04:09:36;;;;;;;9.63;8.33;;;;;;;22.23;100.00;98584.94;5153143;27;20684;-70
2022/08/22 04:12:24;;;;;;;9.17;8.37;;;;;;;22.28;100.00;98598.41;5151636;27;20197;-70
2022/08/22 04:15:06;;;;;;;7.87;7.23;;;;;;;22.31;100.00;98592.91;5162508;27;20197;-70
2022/08/22 04:17:58;;;;;;;8.80;8.00;;;;;;;22.33;100.00;98604.03;5158920;27;20196;-70
2022/08/22 04:20:44;;;;;;;10.17;8.57;;;;;;;22.37;100.00;98613.22;5166760;27;20197;-70
2022/08/22 04:23:55;;;;;;;9.40;8.50;;;;;;;22.39;100.00;98606.91;5155134;27;20200;-70
2022/08/22 04:26:33;;;;;;;11.60;9.17;;;;;;;22.42;100.00;98603.22;5068673;28;20227;-70
2022/08/22 04:29:05;;;;;;;9.80;8.87;;;;;;;22.37;100.00;98597.56;5134516;27;20209;-70
2022/08/22 04:31:40;;;;;;;8.70;8.20;;;;;;;22.32;100.00;98595.38;5147061;27;20200;-70
2022/08/22 04:34:14;;;;;;;11.43;10.17;;;;;;;22.29;100.00;98594.84;5153900;27;20283;-70
2022/08/22 04:36:46;;;;;;;14.57;9.27;;;;;;;22.33;100.00;98596.19;5159452;27;20201;-70
2022/08/22 04:39:18;;;;;;;9.20;8.47;;;;;;;22.37;100.00;98610.63;5162813;27;20193;-70
2022/08/22 04:41:50;;;;;;;9.97;9.30;;;;;;;22.43;100.00;98602.22;5159582;27;20251;-70
2022/08/22 04:44:26;;;;;;;10.73;9.73;;;;;;;22.46;100.00;98591.50;5157526;27;20193;-70
2022/08/22 04:46:59;;;;;;;9.27;8.57;;;;;;;22.55;100.00;98590.66;5158477;27;20647;-70
2022/08/22 04:49:35;;;;;;;11.63;8.73;;;;;;;22.62;100.00;98594.34;5153344;27;20293;-70
2022/08/22 04:52:09;;;;;;;9.57;8.67;;;;;;;22.58;100.00;98592.16;5153965;27;20200;-70
2022/08/22 04:54:51;;;;;;;10.30;9.30;;;;;;;22.63;100.00;98597.78;5174125;27;20223;-70
2022/08/22 04:57:28;;;;;;;9.23;8.47;;;;;;;22.74;100.00;98606.34;5157075;27;20200;-70
2022/08/22 04:59:59;;;;;;;9.17;8.47;;;;;;;22.88;100.00;98613.69;5161262;27;20657;-70
2022/08/22 05:02:27;;;;;;;9.23;8.40;;;;;;;22.96;100.00;98628.69;5152922;27;20194;-70
2022/08/22 05:05:00;;;;;;;9.53;8.77;;;;;;;23.00;100.00;98630.84;5166373;27;20260;-70
2022/08/22 05:07:33;;;;;;;9.10;8.50;;;;;;;23.05;100.00;98624.38;5157250;27;20197;-71
2022/08/22 05:10:06;;;;;;;8.90;8.20;;;;;;;23.22;100.00;98642.75;5154915;27;20722;-70
2022/08/22 05:12:37;;;;;;;9.10;8.30;;;;;;;23.33;100.00;98628.63;5152857;27;20558;-70
2022/08/22 05:15:09;;;;;;;9.80;8.23;;;;;;;23.49;100.00;98652.41;5152273;27;20193;-70
2022/08/22 05:17:38;;;;;;;9.07;8.47;;;;;;;23.57;100.00;98647.28;5161728;27;20189;-70
2022/08/22 05:20:11;;;;;;;8.77;8.13;;;;;;;23.65;100.00;98654.41;5148199;27;20645;-71
2022/08/22 05:22:42;;;;;;;9.07;8.27;;;;;;;23.62;100.00;98652.91;5148733;27;20206;-70
2022/08/22 05:25:12;;;;;;;8.40;7.80;;;;;;;23.56;100.00;98650.88;5149440;27;20205;-70
2022/08/22 05:27:43;;;;;;;8.60;7.93;;;;;;;23.58;100.00;98654.19;5150531;27;20247;-70
2022/08/22 05:30:15;;;;;;;8.07;7.30;;;;;;;23.60;100.00;98660.06;5152362;27;20221;-70
2022/08/22 05:32:55;;;;;;;8.03;7.47;;;;;;;23.63;100.00;98656.34;5151370;27;20645;-70
2022/08/22 05:35:33;;;;;;;10.07;9.27;;;;;;;23.62;100.00;98660.75;5152974;27;20201;-71
2022/08/22 05:38:01;;;;;;;9.60;8.80;;;;;;;23.62;100.00;98663.38;5149172;27;20273;-70
2022/08/22 05:40:31;;;;;;;9.03;8.53;;;;;;;23.69;100.00;98661.81;5154605;27;20232;-69
2022/08/22 05:42:58;;;;;;;10.87;8.33;;;;;;;23.78;100.00;98666.16;5152985;27;20216;-70
2022/08/22 05:45:28;;;;;;;9.40;8.60;;;;;;;23.98;100.00;98675.53;5149687;27;20240;-70
2022/08/22 05:48:03;;;;;;;9.40;8.80;;;;;;;24.08;100.00;98672.03;5158526;27;20190;-70
2022/08/22 05:50:35;;;;;;;9.30;8.53;;;;;;;24.07;100.00;98650.28;5157258;27;20244;-70
2022/08/22 05:53:09;;;;;;;9.27;8.33;;;;;;;24.43;100.00;98677.28;5159712;27;20193;-67
2022/08/22 05:55:46;;;;;;;9.50;8.57;;;;;;;24.69;100.00;98678.16;5159450;27;20200;-72
2022/08/22 05:58:46;;;;;;;9.47;8.57;;;;;;;25.01;100.00;98683.66;5150639;27;20220;-71
2022/08/22 06:01:29;;;;;;;8.60;7.90;;;;;;;25.26;100.00;98697.75;5157741;27;20208;-71
2022/08/22 06:04:05;;;;;;;8.30;7.53;;;;;;;25.63;100.00;98696.63;5154864;27;20205;-72
2022/08/22 06:06:42;;;;;;;7.27;6.77;;;;;;;25.80;99.95;98683.41;5159030;27;20279;-71
2022/08/22 06:09:18;;;;;;;6.87;6.37;;;;;;;26.01;99.58;98690.84;5149755;27;20213;-71
2022/08/22 06:11:49;;;;;;;6.67;6.27;;;;;;;26.16;98.65;98691.03;5155228;27;20212;-72
2022/08/22 06:14:28;;;;;;;6.70;5.93;;;;;;;26.29;95.99;98671.22;5148188;27;20201;-69
2022/08/22 06:17:03;;;;;;;6.77;6.23;;;;;;;26.46;95.61;98687.81;5160041;27;20211;-72
2022/08/22 06:19:32;;;;;;;7.77;5.83;;;;;;;26.67;96.12;98690.78;5147470;27;20258;-72
2022/08/22 06:22:03;;;;;;;6.50;5.83;;;;;;;26.85;92.28;98694.06;5145823;27;20198;-71
2022/08/22 06:39:42;;;;;;;9.50;8.20;;;;;;;28.14;86.03;98698.13;5128359;27;21279;-70
2022/08/22 06:42:12;;;;;;;8.53;7.07;;;;;;;28.15;88.19;98708.47;5128179;28;20197;-70
2022/08/22 06:44:43;;;;;;;6.87;6.37;;;;;;;28.19;89.08;98705.47;5125948;28;20280;-76
2022/08/22 06:47:16;;;;;;;6.83;6.37;;;;;;;28.31;86.31;98704.06;5126457;28;20218;-70
2022/08/22 06:49:45;;;;;;;7.80;7.27;;;;;;;28.35;86.44;98710.63;5126351;28;20669;-70
2022/08/22 06:52:18;;;;;;;7.87;7.27;;;;;;;28.41;87.19;98700.22;5128122;27;20201;-69
2022/08/22 06:54:48;;;;;;;7.83;7.10;;;;;;;28.67;85.92;98708.59;5127826;27;20198;-70
2022/08/22 06:57:27;;;;;;;7.68;6.95;;;;;;;28.63;83.30;98709.09;5126809;28;20206;-70
2022/08/22 06:59:55;;;;;;;9.55;7.05;;;;;;;28.74;83.52;98710.53;5127554;27;20584;-69
2022/08/22 07:02:27;;;;;;;27.43;8.77;;;;;;;28.78;82.68;98715.28;5126301;28;20231;-69
2022/08/22 07:04:54;;;;;;;7.87;6.43;;;;;;;28.86;81.36;98715.19;5126049;28;20650;-69
2022/08/22 07:07:25;;;;;;;8.23;7.37;;;;;;;28.75;82.46;98717.47;5125126;28;20214;-69
2022/08/22 07:09:56;;;;;;;7.30;6.83;;;;;;;28.66;82.71;98719.31;5126476;28;20228;-69
2022/08/22 07:12:28;;;;;;;6.77;6.40;;;;;;;28.80;82.05;98715.09;5126990;28;20360;-69
2022/08/22 07:15:01;;;;;;;7.50;6.87;;;;;;;29.01;81.58;98723.16;5126499;28;20259;-69
2022/08/22 07:17:31;;;;;;;7.53;6.82;;;;;;;29.10;81.56;98728.19;5127157;28;20198;-71
2022/08/22 07:20:04;;;;;;;7.00;6.47;;;;;;;29.17;82.13;98726.47;5124435;28;20202;-72
2022/08/22 07:22:34;;;;;;;6.85;6.45;;;;;;;29.37;80.81;98728.59;5125950;27;20206;-69
2022/08/22 07:25:07;;;;;;;7.07;6.50;;;;;;;29.60;78.81;98730.13;5124353;28;20217;-69
2022/08/22 07:27:58;;;;;;;6.05;5.63;;;;;;;29.81;77.93;98732.03;5119090;28;20245;-69
2022/08/22 07:30:35;;;;;;;6.65;6.03;;;;;;;30.00;75.11;98736.75;5126089;28;20198;-69
2022/08/22 07:33:06;;;;;;;5.30;5.07;;;;;;;30.09;74.43;98727.72;5122951;28;20238;-70
2022/08/22 07:35:36;;;;;;;5.47;5.18;;;;;;;30.04;74.10;98722.19;5124224;28;20205;-69
2022/08/22 07:38:14;;;;;;;5.43;4.93;;;;;;;30.09;74.26;98709.22;5122820;28;20241;-69
2022/08/22 07:40:54;;;;;;;5.25;4.97;;;;;;;30.17;76.11;98709.09;5111103;28;20194;-70
2022/08/22 07:43:28;;;;;;;5.60;5.30;;;;;;;30.15;74.93;98708.44;5112578;28;20578;-70
2022/08/22 07:45:58;;;;;;;5.28;5.00;;;;;;;30.17;72.93;98713.56;5112730;28;20205;-70
2022/08/22 07:48:30;;;;;;;5.10;4.80;;;;;;;29.98;76.06;98722.94;5112855;28;20218;-68
2022/08/22 07:51:01;;;;;;;5.05;4.75;;;;;;;30.01;75.00;98719.91;5114289;28;20198;-67
2022/08/22 07:53:36;;;;;;;6.35;5.82;;;;;;;30.06;74.27;98720.16;5113776;28;20205;-67
2022/08/22 07:56:07;;;;;;;5.75;5.45;;;;;;;30.15;72.15;98719.03;5114305;28;20194;-67
2022/08/22 07:58:38;;;;;;;5.47;5.15;;;;;;;30.24;72.64;98718.94;5114264;28;20203;-67
2022/08/22 08:01:08;;;;;;;6.78;5.88;;;;;;;30.17;74.26;98709.09;5113912;28;20226;-67
2022/08/22 08:03:36;;;;;;;6.18;5.32;;;;;;;30.27;72.45;98718.53;5113656;28;20203;-67
2022/08/22 08:06:04;;;;;;;6.05;5.65;;;;;;;30.46;74.69;98723.25;5113525;28;20202;-67
2022/08/22 08:08:36;;;;;;;7.53;6.38;;;;;;;30.69;70.61;98719.41;5113900;28;20219;-67
2022/08/22 08:11:07;;;;;;;5.75;5.28;;;;;;;30.72;69.15;98715.56;5112141;28;20195;-67
2022/08/22 08:13:41;;;;;;;6.93;6.40;;;;;;;30.70;69.27;98714.91;5112739;28;20209;-67
2022/08/22 08:16:16;;;;;;;5.90;5.60;;;;;;;30.69;69.30;98719.41;5113493;28;20647;-68
2022/08/22 08:18:47;;;;;;;5.93;5.63;;;;;;;30.87;68.74;98718.91;5113142;28;20285;-70
2022/08/22 08:21:27;;;;;;;8.40;5.45;;;;;;;30.98;68.60;98715.78;5113544;28;20199;-69
2022/08/22 08:23:55;;;;;;;5.53;5.22;;;;;;;31.17;67.31;98712.47;5112404;28;20664;-69
2022/08/22 08:26:31;;;;;;;6.60;6.28;;;;;;;31.10;66.41;98714.25;5111826;28;20206;-75
2022/08/22 08:28:58;;;;;;;6.68;6.07;;;;;;;30.88;66.51;98709.97;5111771;28;20644;-67
2022/08/22 08:31:30;;;;;;;7.18;6.57;;;;;;;30.55;67.07;98700.94;5112755;27;20716;-67
2022/08/22 08:34:03;;;;;;;7.15;6.55;;;;;;;30.42;67.65;98701.66;5112591;28;20206;-67
2022/08/22 08:36:50;;;;;;;7.05;6.53;;;;;;;30.61;69.81;98708.13;5112351;28;20240;-67
2022/08/22 08:39:24;;;;;;;7.07;6.65;;;;;;;30.61;70.32;98708.13;5110749;28;20728;-67
2022/08/22 08:42:20;;;;;;;6.32;5.93;;;;;;;30.78;67.51;98709.50;5112695;28;20203;-68
2022/08/22 08:45:12;;;;;;;7.18;6.78;;;;;;;30.93;70.58;98706.75;5111457;28;20206;-68
2022/08/22 08:47:56;;;;;;;7.75;7.25;;;;;;;31.11;72.79;98700.00;5110955;28;20557;-67
2022/08/22 08:50:59;;;;;;;7.30;6.78;;;;;;;31.32;68.15;98700.91;5110028;28;20674;-68
2022/08/22 08:54:14;;;;;;;8.63;7.82;;;;;;;31.34;67.79;98704.19;5108631;28;20195;-68
2022/08/22 08:56:53;;;;;;;9.45;7.82;;;;;;;31.34;67.85;98696.25;5049693;28;20235;-68
2022/08/22 08:59:39;;;;;;;9.15;8.45;;;;;;;31.31;66.27;98699.31;5108203;28;20589;-68
2022/08/22 09:02:19;;;;;;;9.75;8.55;;;;;;;31.15;68.58;98681.88;5110816;28;20198;-68
2022/08/22 09:05:24;;;;;;;9.02;8.43;;;;;;;31.26;67.03;98691.09;5108644;28;20190;-68
2022/08/22 09:08:28;;;;;;;9.98;9.07;;;;;;;31.21;68.54;98689.06;5091478;28;20222;-67
2022/08/22 09:11:31;;;;;;;12.55;11.18;;;;;;;30.95;66.57;98684.41;5110292;28;20203;-68
2022/08/22 09:14:12;;;;;;;11.82;10.80;;;;;;;30.80;67.99;98681.00;5102576;28;20653;-67
2022/08/22 09:16:58;;;;;;;11.95;9.90;;;;;;;30.86;69.21;98672.28;5107478;28;20205;-67
2022/08/22 09:19:48;;;;;;;10.98;10.07;;;;;;;30.78;70.19;98666.31;5112103;28;20222;-67
2022/08/22 09:22:59;;;;;;;9.00;8.43;;;;;;;31.20;70.04;98669.69;5105550;28;20195;-67
2022/08/22 09:25:30;;;;;;;10.50;9.43;;;;;;;31.33;70.04;98670.78;5092085;28;20201;-67
2022/08/22 09:28:02;;;;;;;11.45;10.32;;;;;;;31.24;67.40;98673.56;5111605;28;20736;-67
2022/08/22 09:30:58;;;;;;;9.88;8.82;;;;;;;30.98;67.91;98646.97;5111719;28;20195;-68
2022/08/22 09:33:35;;;;;;;10.63;9.90;;;;;;;30.96;66.45;98675.44;5107763;28;20213;-67
2022/08/22 09:36:06;;;;;;;11.10;10.10;;;;;;;31.10;67.77;98671.06;5110551;28;20206;-67
2022/08/22 09:38:47;;;;;;;10.50;8.70;;;;;;;31.16;68.17;98665.78;5110566;28;20241;-67
2022/08/22 09:41:31;;;;;;;11.35;10.38;;;;;;;31.32;67.67;98674.44;5109112;28;20195;-67
2022/08/22 09:44:11;;;;;;;10.38;9.60;;;;;;;30.94;69.85;98672.16;5109572;28;20209;-67
2022/08/22 09:46:55;;;;;;;11.32;10.27;;;;;;;30.95;67.77;98668.53;5110873;28;20206;-67
2022/08/22 09:49:37;;;;;;;12.15;10.98;;;;;;;30.91;74.17;98651.34;5108234;28;20224;-67
2022/08/22 09:52:09;;;;;;;11.80;10.85;;;;;;;30.85;72.27;98651.31;5107365;28;20209;-67
2022/08/22 09:54:43;;;;;;;13.30;11.95;;;;;;;30.93;70.91;98654.63;5110573;28;20194;-68
2022/08/22 09:57:33;;;;;;;15.27;12.32;;;;;;;31.02;68.15;98658.78;5109789;28;20700;-67
2022/08/22 10:00:20;;;;;;;14.95;13.43;;;;;;;31.14;67.28;98657.25;5109185;28;20202;-67
2022/08/22 10:03:00;;;;;;;18.08;13.50;;;;;;;31.23;69.01;98653.41;5110061;28;20209;-67
2022/08/22 10:05:31;;;;;;;18.10;14.02;;;;;;;31.19;68.86;98644.22;5110280;28;20676;-67
2022/08/22 10:08:21;;;;;;;13.68;12.45;;;;;;;31.16;67.63;98644.59;5110332;28;20204;-67
2022/08/22 10:11:08;;;;;;;13.85;12.52;;;;;;;30.98;67.78;98648.78;5110554;28;20202;-68
2022/08/22 10:13:54;;;;;;;14.30;12.77;;;;;;;30.89;69.61;98648.06;5110539;28;20236;-69
2022/08/22 10:16:32;;;;;;;14.50;13.02;;;;;;;30.52;68.80;98643.94;5108877;28;20673;-68
2022/08/22 10:19:11;;;;;;;12.70;11.57;;;;;;;30.60;69.58;98642.97;5109584;28;20247;-67
2022/08/22 10:21:48;;;;;;;13.43;12.25;;;;;;;30.77;68.76;98654.91;5110205;28;20202;-65
2022/08/22 10:24:27;;;;;;;14.02;12.52;;;;;;;30.96;68.21;98651.63;5110906;28;20202;-66
2022/08/22 10:26:57;;;;;;;11.82;10.82;;;;;;;31.01;66.75;98656.34;5109082;28;20201;-65
2022/08/22 10:29:48;;;;;;;11.30;10.25;;;;;;;31.14;66.58;98657.25;5108283;28;20581;-66
2022/08/22 10:32:29;;;;;;;10.98;10.07;;;;;;;31.31;65.60;98646.31;5110681;28;20198;-66
2022/08/22 10:35:01;;;;;;;12.50;11.30;;;;;;;31.29;66.07;98658.94;5110161;28;20206;-66
2022/08/22 10:37:35;;;;;;;11.55;10.60;;;;;;;31.04;64.22;98651.47;5110745;28;20199;-66
2022/08/22 10:40:08;;;;;;;11.45;10.35;;;;;;;31.14;68.87;98641.34;5109211;28;20323;-66
2022/08/22 10:42:41;;;;;;;13.10;11.75;;;;;;;31.28;68.36;98641.44;5110181;28;20208;-66
2022/08/22 10:45:19;;;;;;;13.30;12.02;;;;;;;31.24;66.75;98649.72;5109290;28;20210;-65
2022/08/22 10:48:29;;;;;;;18.58;13.38;;;;;;;31.26;65.82;98648.72;5109008;28;20202;-65
2022/08/22 10:51:04;;;;;;;13.45;12.18;;;;;;;31.19;67.47;98654.81;5109316;28;20725;-66
2022/08/22 10:53:45;;;;;;;12.38;11.25;;;;;;;31.07;65.41;98635.19;5109995;28;20199;-67
2022/08/22 10:56:22;;;;;;;12.63;11.57;;;;;;;31.13;66.04;98650.31;5110881;28;20237;-65
2022/08/22 10:58:55;;;;;;;14.43;12.15;;;;;;;31.16;65.60;98649.91;5109063;28;20194;-65
2022/08/22 11:01:26;;;;;;;14.60;13.23;;;;;;;31.13;67.02;98646.84;5109788;28;20435;-61
2022/08/22 11:04:04;;;;;;;14.10;12.68;;;;;;;31.13;65.73;98634.41;5109876;28;20203;-60
2022/08/22 11:06:44;;;;;;;15.18;13.63;;;;;;;30.90;65.63;98628.53;5109978;28;20679;-60
2022/08/22 11:09:23;;;;;;;15.90;14.27;;;;;;;30.86;66.79;98637.88;5109656;28;20244;-60
2022/08/22 11:12:01;;;;;;;15.90;12.52;;;;;;;30.89;67.60;98632.19;5109698;28;20201;-60
2022/08/22 11:15:04;;;;;;;14.25;12.45;;;;;;;30.67;65.35;98627.97;5112167;28;20678;-60
2022/08/22 11:18:14;;;;;;;14.23;12.77;;;;;;;30.73;66.99;98632.47;5093697;28;20221;-61
2022/08/22 11:20:56;;;;;;;15.18;13.77;;;;;;;30.66;65.83;98636.94;5112218;28;20670;-61
2022/08/22 11:23:35;;;;;;;15.25;13.15;;;;;;;30.68;68.94;98633.09;5113157;28;20285;-61
2022/08/22 11:26:13;;;;;;;19.35;13.52;;;;;;;30.70;66.88;98635.53;5112296;28;20202;-61
2022/08/22 11:29:13;;;;;;;14.45;12.95;;;;;;;30.70;66.82;98627.56;5114106;28;20214;-62
2022/08/22 11:31:49;;;;;;;17.35;14.18;;;;;;;30.52;67.25;98614.03;5113477;28;20198;-62
2022/08/22 11:34:31;;;;;;;15.60;14.02;;;;;;;30.55;68.74;98609.16;5114729;28;20190;-61
2022/08/22 11:37:05;;;;;;;16.65;14.90;;;;;;;30.56;71.56;98605.53;5114531;28;20659;-61
2022/08/22 11:39:37;;;;;;;14.70;13.15;;;;;;;30.64;70.12;98604.53;5113550;28;20278;-62
2022/08/22 11:42:13;;;;;;;16.17;14.05;;;;;;;30.45;69.96;98608.69;5114463;28;20708;-62
2022/08/22 11:44:46;;;;;;;18.08;13.80;;;;;;;30.40;70.76;98608.44;5112940;28;20281;-61
2022/08/22 11:47:15;;;;;;;19.25;14.45;;;;;;;30.23;70.86;98619.44;5113126;28;20670;-62
2022/08/22 11:49:52;;;;;;;15.98;14.32;;;;;;;30.13;74.34;98619.75;5114464;28;20705;-61
2022/08/22 11:52:52;;;;;;;17.65;15.73;;;;;;;29.69;72.97;98618.06;5113680;28;20201;-61
2022/08/22 11:55:25;;;;;;;15.98;14.20;;;;;;;29.53;73.29;98626.19;5113327;28;20198;-61
2022/08/22 11:57:57;;;;;;;16.05;14.40;;;;;;;29.57;75.79;98613.44;5114676;28;20199;-63
2022/08/22 12:00:34;;;;;;;18.88;16.83;;;;;;;29.41;75.53;98613.66;5114049;28;20241;-61
2022/08/22 12:03:32;;;;;;;16.60;14.93;;;;;;;29.37;75.22;98620.34;5111835;28;20207;-61
2022/08/22 12:06:06;;;;;;;18.25;15.82;;;;;;;29.37;76.66;98604.50;5108397;28;20491;-73
2022/08/22 12:09:08;;;;;;;16.88;15.23;;;;;;;29.46;77.22;98616.59;5111743;28;20187;-72
2022/08/22 12:11:43;;;;;;;16.73;14.57;;;;;;;29.37;77.78;98612.41;5097876;28;20561;-72
2022/08/22 12:14:20;;;;;;;16.47;14.43;;;;;;;29.32;80.18;98614.78;5111153;28;20195;-72
2022/08/22 12:17:12;;;;;;;15.50;13.80;;;;;;;29.22;79.58;98611.56;5111833;28;20202;-73
2022/08/22 12:19:51;;;;;;;19.90;13.17;;;;;;;29.21;79.66;98617.88;5113028;28;20191;-72
2022/08/22 12:22:46;;;;;;;14.93;13.53;;;;;;;29.12;79.16;98620.59;5111934;28;20272;-73
2022/08/22 12:25:31;;;;;;;12.83;11.77;;;;;;;28.89;82.18;98619.84;5112872;28;20202;-72
2022/08/22 12:28:10;;;;;;;13.20;11.90;;;;;;;28.80;82.65;98620.94;5113517;28;20194;-72
2022/08/22 12:30:47;;;;;;;12.53;11.43;;;;;;;28.77;81.84;98621.31;5113193;28;20210;-73
2022/08/22 12:33:29;;;;;;;14.43;11.93;;;;;;;28.79;81.86;98624.56;5111733;28;20205;-73
2022/08/22 12:36:07;;;;;;;16.00;13.03;;;;;;;28.81;82.29;98621.75;5112378;28;20195;-73
2022/08/22 12:38:48;;;;;;;13.83;11.80;;;;;;;28.78;83.65;98608.94;5112174;28;20225;-72